Main page
METAR-TAF:

METAR-TAF

Airports :

Fujairah International Airport

Fujairah, United Arab Emirates

latitude: 25-06N, longitude: 056-20E, elevation: 28 m

Current weather observation

The report was made 56 minutes ago, at 03:00 UTC
Wind 3 kt from the South
Temperature 32°C
Humidity 79%
Pressure 1001 hPa
Visibility: 5000 m
Scattered clouds at a height of 2000 ft
haze

METAR: OMFJ 190300Z 18003KT 5000 HZ SCT020 32/28 Q1000 A2955

Time: 07:56 (03:56 UTC)

Forecast

The report was made 4 hours and 56 minutes ago, at 23:00 UTC
Forecast valid from 19 at 00 UTC to 20 at 06 UTC
Wind 6 kt from the Northeast
Visibility: 6000 m
Probability 30%
from 19 at 00 UTC to 19 at 03 UTC
Visibility: 5000 m
Few clouds at a height of 2000 ft
haze
Becoming
from 19 at 05 UTC to 19 at 07 UTC
Wind 10 kt from the East
Becoming
from 19 at 14 UTC to 19 at 16 UTC
Wind 3 kt from variable directions

TAF: OMFJ 182300Z 1900/2006 04006KT 6000 NSC PROB30 1900/1903 5000 HZ FEW020 BECMG 1905/1907 09010KT BECMG 1914/1916 VRB03KT

Weather observations and forecasts of more than 4000 airports (METAR and TAF reports).

The available stations are represented by yellow and red dots on the map.

Hover mouse over dot to see the name of the station.

Then click to see weather observations and forecasts.

To change the map : click on the green buttons with a black cross to zoom in, on the green button with a dash to zoom out, or on the green arrows for adjacent maps.


METAR-TAF: